createdAt,value
2022-08-03T00:00:29.413Z,12.02
2022-08-03T00:02:56.975Z,5.70
2022-08-03T00:05:24.499Z,14.88
2022-08-03T00:07:51.931Z,13.05
2022-08-03T00:10:20.443Z,7.57
2022-08-03T00:12:49.276Z,6.70
2022-08-03T00:15:17.191Z,5.60
2022-08-03T00:17:53.655Z,13.70
2022-08-03T00:20:21.691Z,7.20
2022-08-03T00:22:49.191Z,7.65
2022-08-03T00:25:16.822Z,5.15
2022-08-03T00:27:44.288Z,6.90
2022-08-03T00:30:13.291Z,5.07
2022-08-03T00:32:45.085Z,10.73
2022-08-03T00:35:29.345Z,7.00
2022-08-03T00:40:27.727Z,10.98
2022-08-03T00:42:55.951Z,6.10
2022-08-03T00:45:26.032Z,6.10
2022-08-03T00:47:53.700Z,6.68
2022-08-03T00:50:22.844Z,7.22
2022-08-03T00:52:51.267Z,7.85
2022-08-03T00:55:18.808Z,15.38
2022-08-03T00:57:46.370Z,14.88
2022-08-03T01:00:15.492Z,8.05
2022-08-03T01:02:44.415Z,8.30
2022-08-03T01:05:12.007Z,10.75
2022-08-03T01:07:45.743Z,5.40
2022-08-03T01:10:15.111Z,8.55
2022-08-03T01:12:44.755Z,9.00
2022-08-03T01:15:15.945Z,6.30
2022-08-03T01:17:50.592Z,4.43
2022-08-03T01:20:19.444Z,6.72
2022-08-03T01:23:01.612Z,6.68
2022-08-03T01:25:41.133Z,7.60
2022-08-03T01:28:19.475Z,7.03
2022-08-03T01:30:49.297Z,6.93
2022-08-03T01:33:18.646Z,9.68
2022-08-03T01:35:48.070Z,9.52
2022-08-03T01:38:19.057Z,10.90
2022-08-03T01:40:47.379Z,7.00
2022-08-03T01:43:55.331Z,7.28
2022-08-03T01:46:07.665Z,7.95
2022-08-03T01:48:37.293Z,9.07
2022-08-03T01:51:05.616Z,5.60
2022-08-03T01:53:34.759Z,7.82
2022-08-03T01:56:03.526Z,6.72
2022-08-03T01:58:31.577Z,7.30
2022-08-03T02:01:01.148Z,7.07
2022-08-03T02:03:30.899Z,10.88
2022-08-03T02:06:55.591Z,11.63
2022-08-03T02:08:47.285Z,6.88
2022-08-03T02:11:14.836Z,15.73
2022-08-03T02:13:42.824Z,7.95
2022-08-03T02:16:10.284Z,7.72
2022-08-03T02:18:40.417Z,9.18
2022-08-03T02:21:11.305Z,10.23
2022-08-03T02:23:38.961Z,10.38
2022-08-03T02:26:07.934Z,6.97
2022-08-03T02:28:36.629Z,7.88
2022-08-03T02:31:06.054Z,6.63
2022-08-03T02:33:35.138Z,8.77
2022-08-03T02:36:05.282Z,11.80
2022-08-03T02:38:34.228Z,7.15
2022-08-03T02:41:02.402Z,9.02
2022-08-03T02:43:39.210Z,11.48
2022-08-03T02:46:19.143Z,14.48
2022-08-03T02:48:47.471Z,8.10
2022-08-03T02:51:16.941Z,11.65
2022-08-03T02:53:45.615Z,22.50
2022-08-03T02:56:13.720Z,8.38
2022-08-03T02:58:43.637Z,7.75
2022-08-03T03:01:11.706Z,11.32
2022-08-03T03:03:44.899Z,9.75
2022-08-03T03:06:13.697Z,8.65
2022-08-03T03:08:44.500Z,9.63
2022-08-03T03:11:12.549Z,6.10
2022-08-03T03:13:40.623Z,10.98
2022-08-03T03:16:09.293Z,9.70
2022-08-03T03:18:37.132Z,8.95
2022-08-03T03:23:32.879Z,14.00
2022-08-03T03:26:03.002Z,7.32
2022-08-03T03:28:31.667Z,8.82
2022-08-03T03:30:59.247Z,8.43
2022-08-03T03:33:28.524Z,6.40
2022-08-03T03:35:56.496Z,8.38
2022-08-03T03:38:23.954Z,9.60
2022-08-03T03:40:51.409Z,6.93
2022-08-03T03:43:20.259Z,9.98
2022-08-03T03:45:48.406Z,13.75
2022-08-03T03:48:16.006Z,8.80
2022-08-03T03:50:44.733Z,12.38
2022-08-03T03:53:12.576Z,9.77
2022-08-03T03:58:26.832Z,15.05
2022-08-03T04:00:54.453Z,10.27
2022-08-03T04:03:21.993Z,23.88
2022-08-03T04:06:07.262Z,11.52
2022-08-03T04:08:52.124Z,11.15
2022-08-03T04:11:29.129Z,14.90
2022-08-03T04:14:02.120Z,12.63
2022-08-03T04:16:32.071Z,8.23
2022-08-03T04:19:01.655Z,6.85
2022-08-03T04:21:29.670Z,7.65
2022-08-03T04:23:59.961Z,6.20
2022-08-03T04:26:29.450Z,10.05
2022-08-03T04:28:57.926Z,10.20
2022-08-03T04:31:28.425Z,9.55
2022-08-03T04:33:56.372Z,13.73
2022-08-03T04:38:56.714Z,22.23
2022-08-03T04:41:25.800Z,9.13
2022-08-03T04:43:54.750Z,11.05
2022-08-03T04:46:23.850Z,18.08
2022-08-03T04:48:52.775Z,14.32
2022-08-03T04:51:20.352Z,10.18
2022-08-03T04:53:47.831Z,13.98
2022-08-03T04:56:15.252Z,11.02
2022-08-03T04:58:42.707Z,15.07
2022-08-03T05:01:10.436Z,21.15
2022-08-03T05:03:37.965Z,12.80
2022-08-03T05:06:10.973Z,11.93
2022-08-03T05:08:46.087Z,11.73
2022-08-03T05:11:14.445Z,9.10
2022-08-03T05:13:41.847Z,10.75
2022-08-03T05:16:09.409Z,12.55
2022-08-03T05:18:37.023Z,9.73
2022-08-03T05:21:04.910Z,7.13
2022-08-03T05:23:33.761Z,12.07
2022-08-03T05:26:01.212Z,10.23
2022-08-03T05:28:28.696Z,8.20
2022-08-03T05:30:56.148Z,10.35
2022-08-03T05:33:23.761Z,14.30
2022-08-03T05:36:00.652Z,9.98
2022-08-03T05:38:35.082Z,7.00
2022-08-03T05:41:21.924Z,7.65
2022-08-03T05:43:51.536Z,14.38
2022-08-03T05:46:19.080Z,10.98
2022-08-03T05:48:46.501Z,16.52
2022-08-03T05:51:13.930Z,9.63
2022-08-03T05:53:41.835Z,13.90
2022-08-03T05:58:43.898Z,17.52
2022-08-03T06:01:11.368Z,7.25
2022-08-03T06:03:38.866Z,13.93
2022-08-03T06:06:06.432Z,20.38
2022-08-03T06:08:33.884Z,13.77
2022-08-03T06:11:01.400Z,9.40
2022-08-03T06:13:28.827Z,16.73
2022-08-03T06:15:57.617Z,12.52
2022-08-03T06:18:25.160Z,9.70
2022-08-03T06:20:52.834Z,10.68
2022-08-03T06:23:20.353Z,8.93
2022-08-03T06:25:48.327Z,18.35
2022-08-03T06:31:06.618Z,7.07
2022-08-03T06:34:30.489Z,8.00
2022-08-03T06:38:49.056Z,8.98
2022-08-03T06:41:16.511Z,8.40
2022-08-03T06:44:03.241Z,8.35
2022-08-03T06:49:00.159Z,7.50
2022-08-03T06:52:03.718Z,7.75
2022-08-03T06:56:42.334Z,8.65
2022-08-03T06:59:09.910Z,13.20
2022-08-03T07:01:57.413Z,8.68
2022-08-03T07:04:26.261Z,9.20
2022-08-03T07:06:54.172Z,10.70
2022-08-03T07:09:21.647Z,8.60
2022-08-03T07:11:49.109Z,7.57
2022-08-03T07:14:16.611Z,17.63
2022-08-03T07:16:44.085Z,21.15
2022-08-03T07:19:12.184Z,10.50
2022-08-03T07:21:41.025Z,9.80
2022-08-03T07:24:08.503Z,6.82
2022-08-03T07:26:35.963Z,8.40
2022-08-03T07:29:03.987Z,8.75
2022-08-03T07:31:42.167Z,11.30
2022-08-03T07:34:09.658Z,11.52
2022-08-03T07:36:37.098Z,14.52
2022-08-03T07:39:15.343Z,10.30
2022-08-03T07:41:45.169Z,10.48
2022-08-03T07:44:12.700Z,9.30
2022-08-03T07:46:40.200Z,5.20
2022-08-03T07:49:07.712Z,10.40
2022-08-03T07:54:02.663Z,9.23
2022-08-03T07:56:31.673Z,7.47
2022-08-03T07:58:59.685Z,17.08
2022-08-03T08:01:27.275Z,15.10
2022-08-03T08:06:22.591Z,9.73
2022-08-03T08:08:50.175Z,8.05
2022-08-03T08:11:17.591Z,6.57
2022-08-03T08:13:46.346Z,9.88
2022-08-03T08:16:13.779Z,7.10
2022-08-03T08:18:41.206Z,18.58
2022-08-03T08:21:08.812Z,7.00
2022-08-03T08:23:43.448Z,6.13
2022-08-03T08:26:12.454Z,17.15
2022-08-03T08:31:08.529Z,10.10
2022-08-03T08:34:03.302Z,8.88
2022-08-03T08:36:23.929Z,8.82
2022-08-03T08:38:51.359Z,6.68
2022-08-03T08:41:19.338Z,28.95
2022-08-03T08:43:46.873Z,5.57
2022-08-03T08:48:53.867Z,8.60
2022-08-03T08:51:22.353Z,7.07
2022-08-03T08:53:51.711Z,10.18
2022-08-03T08:56:19.339Z,9.50
2022-08-03T09:16:13.457Z,9.13
2022-08-03T09:18:41.896Z,7.43
2022-08-03T09:21:33.535Z,15.27
2022-08-03T09:24:04.852Z,7.75
2022-08-03T09:26:34.165Z,11.65
2022-08-03T09:29:07.117Z,17.00
2022-08-03T09:31:43.712Z,11.50
2022-08-03T09:34:12.398Z,7.28
2022-08-03T09:36:40.822Z,13.65
2022-08-03T09:39:10.956Z,9.35
2022-08-03T09:41:43.702Z,15.95
2022-08-03T09:44:24.581Z,12.88
2022-08-03T09:46:55.489Z,7.32
2022-08-03T09:49:23.358Z,7.55
2022-08-03T09:52:32.646Z,8.32
2022-08-03T09:54:38.548Z,9.27
2022-08-03T09:57:06.122Z,5.70
2022-08-03T10:02:02.511Z,7.00
2022-08-03T10:04:30.061Z,5.45
2022-08-03T10:09:24.811Z,9.45
2022-08-03T10:11:52.377Z,11.07
2022-08-03T10:16:47.909Z,8.75
2022-08-03T10:19:17.324Z,4.93
2022-08-03T10:21:48.688Z,14.10
2022-08-03T10:24:17.175Z,7.35
2022-08-03T10:26:49.958Z,7.78
2022-08-03T10:29:22.283Z,6.95
2022-08-03T10:31:57.646Z,9.13
2022-08-03T10:34:28.438Z,12.93
2022-08-03T10:36:57.793Z,14.85
2022-08-03T10:39:28.505Z,15.15
2022-08-03T10:41:58.178Z,7.38
2022-08-03T10:44:27.037Z,18.23
2022-08-03T10:46:55.577Z,10.25
2022-08-03T10:49:34.030Z,6.95
2022-08-03T10:52:09.683Z,9.55
2022-08-03T10:55:10.887Z,13.05
2022-08-03T10:57:43.381Z,7.10
2022-08-03T11:00:13.188Z,5.30
2022-08-03T11:02:59.335Z,12.40
2022-08-03T11:05:27.340Z,10.57
2022-08-03T11:08:09.652Z,7.63
2022-08-03T11:10:38.607Z,10.35
2022-08-03T11:13:07.615Z,6.95
2022-08-03T11:15:35.933Z,10.93
2022-08-03T11:18:11.025Z,14.43
2022-08-03T11:20:45.805Z,8.27
2022-08-03T11:23:13.773Z,17.92
2022-08-03T11:26:00.148Z,8.35
2022-08-03T11:28:30.698Z,17.08
2022-08-03T11:30:58.391Z,8.20
2022-08-03T11:33:32.114Z,11.82
2022-08-03T11:36:00.067Z,12.15
2022-08-03T11:38:27.564Z,8.90
2022-08-03T11:40:55.418Z,18.55
2022-08-03T11:43:45.133Z,7.40
2022-08-03T11:46:28.183Z,11.02
2022-08-03T11:49:09.069Z,8.98
2022-08-03T11:51:38.654Z,23.73
2022-08-03T11:54:06.852Z,12.68
2022-08-03T11:56:45.269Z,9.88
2022-08-03T11:59:20.582Z,16.42
2022-08-03T12:01:50.786Z,12.93
2022-08-03T12:04:18.277Z,18.10
2022-08-03T12:06:59.132Z,11.98
2022-08-03T12:09:26.653Z,6.95
2022-08-03T12:12:00.881Z,8.43
2022-08-03T12:14:50.980Z,12.88
2022-08-03T12:17:18.242Z,10.23
2022-08-03T12:19:45.923Z,10.70
2022-08-03T12:22:13.521Z,12.73
2022-08-03T12:24:41.618Z,9.90
2022-08-03T12:27:09.122Z,9.50
2022-08-03T12:29:36.891Z,7.95
2022-08-03T12:32:04.497Z,11.27
2022-08-03T12:34:48.547Z,17.35
2022-08-03T12:37:22.130Z,11.02
2022-08-03T12:40:02.272Z,5.90
2022-08-03T12:42:34.978Z,9.55
2022-08-03T12:45:17.577Z,14.05
2022-08-03T12:47:51.744Z,10.95
2022-08-03T12:50:26.495Z,13.68
2022-08-03T12:52:53.931Z,5.57
2022-08-03T12:55:21.881Z,8.20
2022-08-03T12:57:49.406Z,12.95
2022-08-03T13:00:21.704Z,9.00
2022-08-03T13:03:26.575Z,6.65
2022-08-03T13:05:49.367Z,9.77
2022-08-03T13:08:20.718Z,9.10
2022-08-03T13:10:48.466Z,10.85
2022-08-03T13:13:15.882Z,6.40
2022-08-03T13:15:48.194Z,5.57
2022-08-03T13:18:17.542Z,9.65
2022-08-03T13:20:45.559Z,5.95
2022-08-03T13:23:22.037Z,5.47
2022-08-03T13:25:55.862Z,12.18
2022-08-03T13:28:23.711Z,6.40
2022-08-03T13:30:51.244Z,6.88
2022-08-03T13:33:18.737Z,6.95
2022-08-03T13:35:46.133Z,6.70
2022-08-03T13:38:15.178Z,3.78
2022-08-03T13:40:42.735Z,5.18
2022-08-03T13:43:13.529Z,3.55
2022-08-03T13:45:42.189Z,4.68
2022-08-03T13:48:11.052Z,9.13
2022-08-03T13:50:42.616Z,5.78
2022-08-03T13:53:10.583Z,6.63
2022-08-03T13:55:39.414Z,6.68
2022-08-03T13:58:07.960Z,10.90
2022-08-03T14:00:35.544Z,5.65
2022-08-03T14:03:10.785Z,6.43
2022-08-03T14:05:40.200Z,10.02
2022-08-03T14:08:08.053Z,4.90
2022-08-03T14:10:36.259Z,7.95
2022-08-03T14:13:05.476Z,4.43
2022-08-03T14:15:37.635Z,4.18
2022-08-03T14:18:06.028Z,3.55
2022-08-03T14:20:38.513Z,9.60
2022-08-03T14:23:15.054Z,5.43
2022-08-03T14:25:44.533Z,5.40
2022-08-03T14:28:19.728Z,5.60
2022-08-03T14:30:48.406Z,9.25
2022-08-03T14:33:15.924Z,9.20
2022-08-03T14:35:43.695Z,4.35
2022-08-03T14:38:11.123Z,3.83
2022-08-03T14:40:38.577Z,8.82
2022-08-03T14:43:06.069Z,7.65
2022-08-03T14:45:34.979Z,13.90
2022-08-03T14:50:27.891Z,8.60
2022-08-03T14:50:51.647Z,8.32
2022-08-03T14:53:19.873Z,6.82
2022-08-03T14:55:50.471Z,7.50
2022-08-03T14:58:20.539Z,4.30
2022-08-03T15:00:50.717Z,4.00
2022-08-03T15:03:20.123Z,6.28
2022-08-03T15:05:47.790Z,6.55
2022-08-03T15:08:15.221Z,9.07
2022-08-03T15:10:44.063Z,6.70
2022-08-03T15:13:12.501Z,9.63
2022-08-03T15:15:39.981Z,4.30
2022-08-03T15:18:08.829Z,4.97
2022-08-03T15:20:44.268Z,8.32
2022-08-03T15:23:12.782Z,4.22
2022-08-03T15:26:03.829Z,9.90
2022-08-03T15:28:27.964Z,4.80
2022-08-03T15:30:55.422Z,6.85
2022-08-03T15:33:24.193Z,7.72
2022-08-03T15:35:52.871Z,10.43
2022-08-03T15:38:22.797Z,17.85
2022-08-03T15:40:54.368Z,8.75
2022-08-03T15:43:22.242Z,5.55
2022-08-03T15:45:54.711Z,10.60
2022-08-03T15:48:38.472Z,6.82
2022-08-03T15:51:06.210Z,11.30
2022-08-03T15:53:34.288Z,6.50
2022-08-03T15:56:05.221Z,4.95
2022-08-03T15:59:03.522Z,7.00
2022-08-03T16:01:22.929Z,6.30
2022-08-03T16:03:51.957Z,6.05
2022-08-03T16:06:19.496Z,8.57
2022-08-03T16:08:57.481Z,7.95
2022-08-03T16:11:25.170Z,8.57
2022-08-03T16:14:13.234Z,9.48
2022-08-03T16:16:40.939Z,7.85
2022-08-03T16:19:10.142Z,11.98
2022-08-03T16:21:38.601Z,11.80
2022-08-03T16:24:17.545Z,4.78
2022-08-03T16:26:47.428Z,8.10
2022-08-03T16:29:22.578Z,5.97
2022-08-03T16:31:51.801Z,6.30
2022-08-03T16:34:21.439Z,7.22
2022-08-03T16:36:48.897Z,10.65
2022-08-03T16:39:16.383Z,6.68
2022-08-03T16:41:54.119Z,6.55
2022-08-03T16:44:28.962Z,16.42
2022-08-03T16:46:56.430Z,15.02
2022-08-03T16:49:53.692Z,12.48
2022-08-03T16:52:13.019Z,4.53
2022-08-03T16:54:40.904Z,4.30
2022-08-03T16:57:12.470Z,7.88
2022-08-03T16:59:40.549Z,10.18
2022-08-03T17:02:10.562Z,10.45
2022-08-03T17:04:40.949Z,5.55
2022-08-03T17:07:13.149Z,8.70
2022-08-03T17:09:41.770Z,16.85
2022-08-03T17:12:20.959Z,11.75
2022-08-03T17:14:48.432Z,7.25
2022-08-03T17:19:47.188Z,8.40
2022-08-03T17:22:16.377Z,10.63
2022-08-03T17:24:45.782Z,11.90
2022-08-03T17:28:41.934Z,11.05
2022-08-03T17:30:07.710Z,6.00
2022-08-03T17:32:42.412Z,14.68
2022-08-03T17:35:11.894Z,8.57
2022-08-03T17:37:57.540Z,10.45
2022-08-03T17:40:26.349Z,9.98
2022-08-03T17:42:54.464Z,12.57
2022-08-03T17:47:57.792Z,10.45
2022-08-03T17:50:29.933Z,17.15
2022-08-03T17:53:07.249Z,8.90
2022-08-03T17:55:56.993Z,10.95
2022-08-03T17:58:32.140Z,10.68
2022-08-03T18:02:01.973Z,13.60
2022-08-03T18:04:21.779Z,7.45
2022-08-03T18:07:00.310Z,13.15
2022-08-03T18:10:03.805Z,12.13
2022-08-03T18:12:27.926Z,14.77
2022-08-03T18:15:01.246Z,14.43
2022-08-03T18:17:58.392Z,18.48
2022-08-03T18:20:34.438Z,9.02
2022-08-03T18:23:07.790Z,18.38
2022-08-03T18:25:44.966Z,15.32
2022-08-03T18:28:18.770Z,28.10
2022-08-03T18:30:54.326Z,10.15
2022-08-03T18:34:19.660Z,12.02
2022-08-03T18:36:11.257Z,9.80
2022-08-03T18:38:47.031Z,8.43
2022-08-03T18:41:19.648Z,14.68
2022-08-03T18:44:06.477Z,17.13
2022-08-03T18:46:41.021Z,20.77
2022-08-03T18:49:12.581Z,26.60
2022-08-03T18:51:43.179Z,22.85
2022-08-03T18:54:45.897Z,23.60
2022-08-03T18:57:07.328Z,18.38
2022-08-03T18:59:40.381Z,27.30
2022-08-03T19:02:09.217Z,19.10
2022-08-03T19:04:41.140Z,24.55
2022-08-03T19:07:11.219Z,29.52
2022-08-03T19:09:47.804Z,15.82
2022-08-03T19:12:31.012Z,28.13
2022-08-03T19:15:05.578Z,73.72
2022-08-03T19:17:41.319Z,62.88
2022-08-03T19:20:10.198Z,35.40
2022-08-03T19:22:38.277Z,29.05
2022-08-03T19:25:07.972Z,29.83
2022-08-03T19:27:40.580Z,50.10
2022-08-03T19:30:20.108Z,37.03
2022-08-03T19:32:53.949Z,34.58
2022-08-03T19:35:51.805Z,23.10
2022-08-03T19:38:09.775Z,29.52
2022-08-03T19:40:42.354Z,26.65
2022-08-03T19:43:21.470Z,22.05
2022-08-03T19:46:04.467Z,14.95
2022-08-03T19:48:34.644Z,10.32
2022-08-03T19:51:04.491Z,18.13
2022-08-03T19:53:44.928Z,13.15
2022-08-03T19:56:15.190Z,11.55
2022-08-03T19:58:43.815Z,16.67
2022-08-03T20:01:21.156Z,14.55
2022-08-03T20:03:49.657Z,13.40
2022-08-03T20:06:17.564Z,11.60
2022-08-03T20:08:45.088Z,17.20
2022-08-03T20:11:17.140Z,16.48
2022-08-03T20:13:48.975Z,12.27
2022-08-03T20:16:16.380Z,22.55
2022-08-03T20:18:43.828Z,17.40
2022-08-03T20:21:15.338Z,11.85
2022-08-03T20:24:03.267Z,16.23
2022-08-03T20:26:33.469Z,9.45
2022-08-03T20:29:09.048Z,15.63
2022-08-03T20:31:38.245Z,11.30
2022-08-03T20:34:06.184Z,9.05
2022-08-03T20:36:33.663Z,11.88
2022-08-03T20:39:01.915Z,14.00
2022-08-03T20:41:36.822Z,11.82
2022-08-03T20:44:05.212Z,10.30
2022-08-03T20:46:41.762Z,8.70
2022-08-03T20:49:19.431Z,26.98
2022-08-03T20:51:53.111Z,11.60
2022-08-03T20:54:29.341Z,18.40
2022-08-03T20:56:59.650Z,12.18
2022-08-03T20:59:34.823Z,11.75
2022-08-03T21:02:19.204Z,14.65
2022-08-03T21:04:47.713Z,10.60
2022-08-03T21:07:17.560Z,14.20
2022-08-03T21:09:49.663Z,9.07
2022-08-03T21:12:26.980Z,8.43
2022-08-03T21:15:00.007Z,12.37
2022-08-03T21:17:40.080Z,14.38
2022-08-03T21:20:09.456Z,15.63
2022-08-03T21:22:37.937Z,6.30
2022-08-03T21:25:07.333Z,14.75
2022-08-03T21:27:36.775Z,15.35
2022-08-03T21:30:10.480Z,12.57
2022-08-03T21:32:40.218Z,13.95
2022-08-03T21:35:10.210Z,13.10
2022-08-03T21:37:38.973Z,12.45
2022-08-03T21:40:07.089Z,7.85
2022-08-03T21:42:36.059Z,11.13
2022-08-03T21:45:05.222Z,13.80
2022-08-03T21:47:36.836Z,12.10
2022-08-03T21:50:09.411Z,12.43
2022-08-03T21:52:41.624Z,12.18
2022-08-03T21:55:18.464Z,9.70
2022-08-03T21:57:52.556Z,18.70
2022-08-03T22:00:21.428Z,13.45
2022-08-03T22:02:54.425Z,17.10
2022-08-03T22:05:43.007Z,13.13
2022-08-03T22:08:10.959Z,11.43
2022-08-03T22:10:38.957Z,12.05
2022-08-03T22:13:07.937Z,13.57
2022-08-03T22:15:35.445Z,18.42
2022-08-03T22:18:03.501Z,15.73
2022-08-03T22:20:31.158Z,18.65
2022-08-03T22:23:01.496Z,15.15
2022-08-03T22:25:30.440Z,11.90
2022-08-03T22:27:59.445Z,11.15
2022-08-03T22:30:28.284Z,19.83
2022-08-03T22:32:56.132Z,14.02
2022-08-03T22:37:53.295Z,17.40
2022-08-03T22:40:20.778Z,13.43
2022-08-03T22:42:51.991Z,10.07
2022-08-03T22:45:45.782Z,19.88
2022-08-03T22:50:36.482Z,11.18
2022-08-03T22:53:04.428Z,15.48
2022-08-03T22:55:32.010Z,11.48
2022-08-03T22:57:59.488Z,16.30
2022-08-03T23:00:26.996Z,13.63
2022-08-03T23:02:55.408Z,8.35
2022-08-03T23:06:01.156Z,14.45
2022-08-03T23:08:15.535Z,18.45
2022-08-03T23:10:47.000Z,15.00
2022-08-03T23:13:15.516Z,16.83
2022-08-03T23:15:43.427Z,9.48
2022-08-03T23:18:11.028Z,20.67
2022-08-03T23:20:38.665Z,18.00
2022-08-03T23:23:06.201Z,9.18
2022-08-03T23:25:41.259Z,11.25
2022-08-03T23:28:09.741Z,14.18
2022-08-03T23:30:38.215Z,16.13
2022-08-03T23:33:07.497Z,14.40
2022-08-03T23:36:20.046Z,13.82
2022-08-03T23:38:40.634Z,12.80
2022-08-03T23:41:10.195Z,13.65
2022-08-03T23:43:51.197Z,8.45
2022-08-03T23:46:21.008Z,9.68
2022-08-03T23:48:48.490Z,10.82
2022-08-03T23:51:20.499Z,11.60
2022-08-03T23:53:52.617Z,10.73
2022-08-03T23:56:24.904Z,17.35
2022-08-03T23:59:01.055Z,12.60
